createdAt,value
2018-09-02T00:02:44.982Z,82.26
2018-09-02T00:05:48.278Z,82.57
2018-09-02T00:08:51.403Z,82.15
2018-09-02T00:11:54.567Z,82.94
2018-09-02T00:14:57.535Z,82.89
2018-09-02T00:18:00.487Z,82.71
2018-09-02T00:21:17.271Z,82.85
2018-09-02T00:24:20.396Z,83.06
2018-09-02T00:27:23.466Z,83.12
2018-09-02T00:30:27.005Z,82.22
2018-09-02T00:33:29.919Z,82.87
2018-09-02T00:36:32.776Z,83.30
2018-09-02T00:39:35.697Z,83.20
2018-09-02T00:42:38.630Z,83.50
2018-09-02T00:45:41.606Z,83.18
2018-09-02T00:48:44.507Z,83.57
2018-09-02T00:51:48.025Z,83.94
2018-09-02T00:54:51.168Z,83.76
2018-09-02T00:57:54.182Z,84.01
2018-09-02T01:00:59.953Z,83.67
2018-09-02T01:04:04.287Z,84.75
2018-09-02T01:07:07.257Z,83.46
2018-09-02T01:10:10.150Z,84.22
2018-09-02T01:13:13.110Z,83.11
2018-09-02T01:16:16.138Z,83.97
2018-09-02T01:19:19.251Z,84.09
2018-09-02T01:22:22.262Z,83.68
2018-09-02T01:25:25.250Z,83.47
2018-09-02T01:28:28.144Z,83.53
2018-09-02T01:31:31.065Z,83.79
2018-09-02T01:34:40.860Z,83.16
2018-09-02T01:37:43.857Z,82.86
2018-09-02T01:40:46.923Z,84.22
2018-09-02T01:43:50.005Z,84.63
2018-09-02T01:46:53.034Z,84.88
2018-09-02T01:49:56.037Z,84.29
2018-09-02T01:52:58.938Z,84.11
2018-09-02T01:56:01.902Z,83.60
2018-09-02T01:59:05.129Z,83.30
2018-09-02T02:02:08.015Z,83.61
2018-09-02T02:05:10.972Z,82.43
2018-09-02T02:08:13.920Z,83.28
2018-09-02T02:11:16.951Z,84.84
2018-09-02T02:14:19.934Z,85.04
2018-09-02T02:17:22.908Z,84.46
2018-09-02T02:20:25.852Z,83.69
2018-09-02T02:23:28.788Z,83.41
2018-09-02T02:26:31.705Z,84.77
2018-09-02T02:29:34.679Z,84.60
2018-09-02T02:32:37.605Z,83.32
2018-09-02T02:35:40.497Z,83.34
2018-09-02T02:38:43.388Z,84.11
2018-09-02T02:41:46.279Z,84.75
2018-09-02T02:44:49.215Z,83.69
2018-09-02T02:47:52.268Z,83.52
2018-09-02T02:50:55.234Z,83.44
2018-09-02T02:53:58.224Z,84.51
2018-09-02T02:57:01.159Z,84.15
2018-09-02T03:00:04.666Z,83.74
2018-09-02T03:03:07.573Z,84.79
2018-09-02T03:06:10.488Z,84.93
2018-09-02T03:09:13.442Z,84.41
2018-09-02T03:12:16.523Z,85.62
2018-09-02T03:15:19.514Z,84.88
2018-09-02T03:18:22.469Z,84.88
2018-09-02T03:21:25.431Z,85.01
2018-09-02T03:24:28.373Z,84.70
2018-09-02T03:27:31.267Z,85.12
2018-09-02T03:30:34.186Z,84.70
2018-09-02T03:33:37.178Z,84.72
2018-09-02T03:36:40.108Z,84.73
2018-09-02T03:39:43.011Z,84.95
2018-09-02T03:42:45.969Z,84.86
2018-09-02T03:45:48.826Z,85.17
2018-09-02T03:48:52.039Z,84.96
2018-09-02T03:51:55.242Z,84.84
2018-09-02T03:54:58.513Z,85.08
2018-09-02T03:58:01.520Z,84.56
2018-09-02T04:01:04.510Z,84.70
2018-09-02T04:04:07.445Z,83.88
2018-09-02T04:07:10.446Z,85.09
2018-09-02T04:10:13.716Z,85.74
2018-09-02T04:13:16.821Z,85.17
2018-09-02T04:16:19.809Z,84.73
2018-09-02T04:19:22.884Z,84.21
2018-09-02T04:22:25.916Z,83.87
2018-09-02T04:25:29.304Z,83.61
2018-09-02T04:28:32.256Z,85.82
2018-09-02T04:31:35.188Z,85.61
2018-09-02T04:34:38.125Z,85.38
2018-09-02T04:37:41.070Z,84.47
2018-09-02T04:40:43.962Z,84.29
2018-09-02T04:43:47.197Z,85.02
2018-09-02T04:46:50.221Z,84.84
2018-09-02T04:49:53.180Z,84.17
2018-09-02T04:52:56.106Z,83.93
2018-09-02T04:55:59.090Z,85.25
2018-09-02T04:59:02.028Z,84.73
2018-09-02T05:02:04.998Z,84.55
2018-09-02T05:05:07.978Z,84.44
2018-09-02T05:08:10.884Z,84.57
2018-09-02T05:11:13.798Z,84.19
2018-09-02T05:14:16.762Z,84.57
2018-09-02T05:17:20.939Z,83.70
2018-09-02T05:20:23.978Z,85.07
2018-09-02T05:23:27.117Z,84.76
2018-09-02T05:26:30.045Z,85.75
2018-09-02T05:29:33.105Z,86.36
2018-09-02T05:32:36.129Z,84.93
2018-09-02T05:35:39.027Z,84.85
2018-09-02T05:38:41.924Z,84.79
2018-09-02T05:41:44.898Z,82.75
2018-09-02T05:44:47.894Z,83.52
2018-09-02T05:47:50.885Z,83.97
2018-09-02T05:50:53.890Z,85.10
2018-09-02T05:53:57.620Z,85.68
2018-09-02T05:57:00.562Z,85.74
2018-09-02T06:00:04.121Z,85.11
2018-09-02T06:03:06.985Z,85.68
2018-09-02T06:06:09.946Z,85.93
2018-09-02T06:09:12.829Z,85.30
2018-09-02T06:12:15.761Z,85.86
2018-09-02T06:15:18.780Z,86.31
2018-09-02T06:18:21.742Z,87.03
2018-09-02T06:21:24.906Z,86.23
2018-09-02T06:24:27.902Z,86.09
2018-09-02T06:27:30.878Z,85.77
2018-09-02T06:30:33.850Z,87.07
2018-09-02T06:33:36.735Z,86.90
2018-09-02T06:36:39.644Z,87.16
2018-09-02T06:39:42.579Z,88.37
2018-09-02T06:42:45.512Z,88.65
2018-09-02T06:45:48.541Z,88.33
2018-09-02T06:48:51.542Z,88.42
2018-09-02T06:51:54.487Z,88.82
2018-09-02T06:54:57.509Z,89.58
2018-09-02T06:58:00.459Z,89.76
2018-09-02T07:01:03.379Z,90.00
2018-09-02T07:04:06.261Z,90.04
2018-09-02T07:07:09.259Z,90.04
2018-09-02T07:10:12.254Z,91.26
2018-09-02T07:13:15.395Z,92.04
2018-09-02T07:16:25.744Z,91.44
2018-09-02T07:19:28.727Z,91.43
2018-09-02T07:22:31.639Z,92.40
2018-09-02T07:25:34.796Z,92.65
2018-09-02T07:28:37.771Z,92.38
2018-09-02T07:31:40.690Z,92.18
2018-09-02T07:34:43.597Z,92.65
2018-09-02T07:37:46.844Z,91.97
2018-09-02T07:40:49.884Z,91.54
2018-09-02T07:43:53.167Z,92.37
2018-09-02T07:46:56.172Z,92.45
2018-09-02T07:49:59.261Z,92.42
2018-09-02T07:53:02.300Z,92.08
2018-09-02T07:56:05.375Z,91.83
2018-09-02T07:59:08.287Z,91.06
2018-09-02T08:02:18.124Z,90.27
2018-09-02T08:05:21.120Z,89.82
2018-09-02T08:08:24.230Z,90.29
2018-09-02T08:11:27.357Z,90.39
2018-09-02T08:14:30.408Z,87.67
2018-09-02T08:17:33.380Z,87.88
2018-09-02T08:20:36.393Z,85.98
2018-09-02T08:23:39.405Z,87.00
2018-09-02T08:26:42.446Z,86.76
2018-09-02T08:29:45.695Z,86.06
2018-09-02T08:32:49.076Z,87.76
2018-09-02T08:35:52.302Z,89.77
2018-09-02T08:38:55.714Z,87.11
2018-09-02T08:41:58.721Z,86.28
2018-09-02T08:45:01.624Z,86.90
2018-09-02T08:48:04.658Z,85.61
2018-09-02T08:51:07.633Z,86.03
2018-09-02T08:54:10.590Z,85.01
2018-09-02T08:57:13.491Z,86.41
2018-09-02T09:00:17.526Z,85.42
2018-09-02T09:03:20.792Z,85.45
2018-09-02T09:06:24.421Z,84.83
2018-09-02T09:09:27.486Z,81.78
2018-09-02T09:12:30.542Z,83.03
2018-09-02T09:15:33.500Z,80.46
2018-09-02T09:18:36.516Z,79.98
2018-09-02T09:21:39.519Z,78.15
2018-09-02T09:24:42.459Z,76.96
2018-09-02T09:27:45.597Z,76.62
2018-09-02T09:30:48.772Z,74.57
2018-09-02T09:33:51.925Z,75.13
2018-09-02T09:36:55.142Z,73.39
2018-09-02T09:39:58.296Z,72.61
2018-09-02T09:43:02.852Z,69.74
2018-09-02T09:46:05.909Z,69.87
2018-09-02T09:49:09.468Z,69.13
2018-09-02T09:52:12.459Z,69.08
2018-09-02T09:55:15.673Z,68.20
2018-09-02T09:58:18.781Z,68.07
2018-09-02T10:01:21.765Z,66.44
2018-09-02T10:04:25.005Z,67.11
2018-09-02T10:07:28.415Z,65.04
2018-09-02T10:10:31.449Z,60.93
2018-09-02T10:13:34.504Z,58.65
2018-09-02T10:16:37.587Z,60.38
2018-09-02T10:19:40.519Z,62.54
2018-09-02T10:22:43.450Z,61.45
2018-09-02T10:25:46.692Z,63.10
2018-09-02T10:28:49.732Z,60.86
2018-09-02T10:31:52.951Z,57.30
2018-09-02T10:34:56.289Z,58.58
2018-09-02T10:37:59.194Z,58.64
2018-09-02T10:41:02.174Z,60.16
2018-09-02T10:44:05.241Z,57.91
2018-09-02T10:47:08.275Z,57.88
2018-09-02T10:50:11.856Z,55.00
2018-09-02T10:53:15.162Z,57.12
2018-09-02T10:56:19.615Z,56.52
2018-09-02T10:59:22.767Z,53.86
2018-09-02T11:02:25.886Z,53.47
2018-09-02T11:05:29.038Z,52.81
2018-09-02T11:08:31.974Z,55.35
2018-09-02T11:11:35.007Z,52.48
2018-09-02T11:14:37.955Z,52.53
2018-09-02T11:17:40.868Z,51.25
2018-09-02T11:20:43.795Z,50.58
2018-09-02T11:23:46.770Z,50.48
2018-09-02T11:26:49.870Z,51.13
2018-09-02T11:29:52.910Z,50.21
2018-09-02T11:32:55.896Z,50.44
2018-09-02T11:35:58.807Z,50.59
2018-09-02T11:39:04.671Z,47.48
2018-09-02T11:42:07.667Z,49.64
2018-09-02T11:45:10.656Z,49.72
2018-09-02T11:48:13.663Z,50.88
2018-09-02T11:51:16.787Z,48.73
2018-09-02T11:54:19.909Z,50.15
2018-09-02T11:57:23.149Z,50.92
2018-09-02T12:00:26.392Z,48.62
2018-09-02T12:03:29.515Z,48.02
2018-09-02T12:06:32.670Z,49.71
2018-09-02T12:09:35.803Z,49.04
2018-09-02T12:12:38.897Z,49.75
2018-09-02T12:15:42.036Z,50.21
2018-09-02T12:18:45.071Z,49.41
2018-09-02T12:21:48.344Z,48.67
2018-09-02T12:24:51.381Z,48.41
2018-09-02T12:27:54.363Z,48.55
2018-09-02T12:30:57.357Z,48.51
2018-09-02T12:34:00.366Z,46.83
2018-09-02T12:37:03.452Z,47.30
2018-09-02T12:40:06.471Z,47.81
2018-09-02T12:43:09.492Z,46.98
2018-09-02T12:46:12.515Z,45.23
2018-09-02T12:49:16.147Z,46.76
2018-09-02T12:52:19.230Z,46.60
2018-09-02T12:55:22.441Z,46.18
2018-09-02T12:58:25.375Z,46.46
2018-09-02T13:01:28.421Z,44.58
2018-09-02T13:04:31.396Z,42.18
2018-09-02T13:07:34.725Z,45.55
2018-09-02T13:10:37.756Z,44.44
2018-09-02T13:13:40.678Z,43.85
2018-09-02T13:16:43.671Z,43.56
2018-09-02T13:19:46.739Z,44.18
2018-09-02T13:22:49.922Z,43.00
2018-09-02T13:25:53.036Z,42.62
2018-09-02T13:28:56.035Z,44.57
2018-09-02T13:31:59.450Z,42.95
2018-09-02T13:35:02.520Z,41.56
2018-09-02T13:38:05.633Z,43.00
2018-09-02T13:41:08.670Z,41.30
2018-09-02T13:44:11.745Z,44.07
2018-09-02T13:47:15.440Z,41.26
2018-09-02T13:50:18.563Z,42.67
2018-09-02T13:53:21.755Z,41.77
2018-09-02T13:56:24.699Z,41.17
2018-09-02T13:59:27.700Z,41.68
2018-09-02T14:02:30.794Z,41.09
2018-09-02T14:05:33.789Z,40.49
2018-09-02T14:08:36.929Z,40.09
2018-09-02T14:11:40.048Z,39.71
2018-09-02T14:14:43.138Z,41.87
2018-09-02T14:17:46.166Z,40.00
2018-09-02T14:20:49.197Z,40.74
2018-09-02T14:23:52.315Z,39.86
2018-09-02T14:26:55.413Z,39.82
2018-09-02T14:29:58.601Z,40.70
2018-09-02T14:33:01.638Z,40.52
2018-09-02T14:36:05.319Z,39.83
2018-09-02T14:39:10.581Z,40.66
2018-09-02T14:42:13.676Z,39.46
2018-09-02T14:45:16.735Z,40.06
2018-09-02T14:48:19.987Z,40.59
2018-09-02T14:51:23.086Z,39.69
2018-09-02T14:54:26.175Z,40.13
2018-09-02T14:57:29.343Z,41.51
2018-09-02T15:00:32.396Z,40.89
2018-09-02T15:03:35.433Z,39.99
2018-09-02T15:06:38.463Z,40.13
2018-09-02T15:09:41.482Z,40.51
2018-09-02T15:12:44.545Z,39.57
2018-09-02T15:15:48.646Z,41.12
2018-09-02T15:18:51.810Z,39.36
2018-09-02T15:21:54.826Z,39.23
2018-09-02T15:24:57.814Z,39.17
2018-09-02T15:28:00.842Z,39.51
2018-09-02T15:31:03.907Z,39.86
2018-09-02T15:34:06.946Z,40.35
2018-09-02T15:37:09.891Z,39.33
2018-09-02T15:40:12.881Z,40.23
2018-09-02T15:43:18.007Z,42.65
2018-09-02T15:46:21.182Z,42.56
2018-09-02T15:49:24.194Z,44.56
2018-09-02T15:52:27.309Z,45.76
2018-09-02T15:55:30.382Z,45.87
2018-09-02T15:58:33.427Z,45.24
2018-09-02T16:01:36.381Z,45.71
2018-09-02T16:04:39.404Z,47.29
2018-09-02T16:07:42.437Z,46.42
2018-09-02T16:10:46.199Z,45.92
2018-09-02T16:13:49.422Z,46.36
2018-09-02T16:16:52.655Z,48.14
2018-09-02T16:19:55.913Z,50.16
2018-09-02T16:22:59.044Z,47.40
2018-09-02T16:26:02.194Z,47.86
2018-09-02T16:29:05.316Z,50.19
2018-09-02T16:32:08.243Z,47.12
2018-09-02T16:35:11.166Z,49.96
2018-09-02T16:38:14.234Z,49.05
2018-09-02T16:41:17.325Z,47.75
2018-09-02T16:44:20.421Z,46.91
2018-09-02T16:47:23.569Z,48.11
2018-09-02T16:50:26.638Z,50.09
2018-09-02T16:53:29.607Z,53.23
2018-09-02T16:56:32.593Z,49.45
2018-09-02T16:59:35.665Z,48.77
2018-09-02T17:02:38.675Z,51.86
2018-09-02T17:05:48.483Z,52.49
2018-09-02T17:08:51.591Z,53.94
2018-09-02T17:11:54.678Z,53.42
2018-09-02T17:14:57.774Z,52.68
2018-09-02T17:18:00.960Z,49.58
2018-09-02T17:21:04.051Z,49.72
2018-09-02T17:24:07.362Z,50.36
2018-09-02T17:27:10.473Z,55.32
2018-09-02T17:30:13.650Z,48.17
2018-09-02T17:33:23.426Z,51.39
2018-09-02T17:36:26.556Z,51.02
2018-09-02T17:39:29.738Z,53.96
2018-09-02T17:42:32.863Z,52.83
2018-09-02T17:45:36.230Z,52.94
2018-09-02T17:48:39.450Z,51.50
2018-09-02T17:51:42.559Z,52.87
2018-09-02T17:54:45.825Z,54.06
2018-09-02T17:57:48.970Z,51.04
2018-09-02T18:00:53.809Z,50.83
2018-09-02T18:03:57.443Z,51.43
2018-09-02T18:07:01.237Z,54.06
2018-09-02T18:10:04.790Z,55.25
2018-09-02T18:13:08.200Z,52.80
2018-09-02T18:16:12.076Z,54.88
2018-09-02T18:19:16.759Z,55.40
2018-09-02T18:22:19.988Z,55.30
2018-09-02T18:25:23.446Z,57.36
2018-09-02T18:28:34.964Z,58.06
2018-09-02T18:31:38.335Z,55.90
2018-09-02T18:34:41.931Z,54.92
2018-09-02T18:37:45.842Z,53.98
2018-09-02T18:40:49.116Z,52.45
2018-09-02T18:43:52.356Z,53.05
2018-09-02T18:46:56.030Z,53.98
2018-09-02T18:49:59.732Z,52.28
2018-09-02T18:53:03.621Z,55.01
2018-09-02T18:56:07.346Z,54.74
2018-09-02T18:59:11.826Z,54.92
2018-09-02T19:02:15.775Z,56.09
2018-09-02T19:05:19.671Z,54.36
2018-09-02T19:08:23.322Z,54.95
2018-09-02T19:11:26.951Z,54.50
2018-09-02T19:14:30.702Z,54.14
2018-09-02T19:17:34.251Z,54.29
2018-09-02T19:20:38.765Z,55.71
2018-09-02T19:23:43.652Z,55.65
2018-09-02T19:26:46.955Z,57.41
2018-09-02T19:29:50.442Z,56.18
2018-09-02T19:32:53.735Z,57.82
2018-09-02T19:35:57.035Z,54.89
2018-09-02T19:39:00.715Z,55.60
2018-09-02T19:42:04.348Z,57.03
2018-09-02T19:45:07.941Z,57.46
2018-09-02T19:48:11.115Z,58.16
2018-09-02T19:51:14.348Z,56.42
2018-09-02T19:54:17.917Z,58.00
2018-09-02T19:57:21.447Z,59.13
2018-09-02T20:00:24.617Z,59.13
2018-09-02T20:03:28.108Z,60.50
2018-09-02T20:06:32.306Z,60.20
2018-09-02T20:09:35.914Z,59.15
2018-09-02T20:12:40.299Z,59.67
2018-09-02T20:15:43.973Z,58.56
2018-09-02T20:18:47.664Z,59.72
2018-09-02T20:21:51.461Z,60.78
2018-09-02T20:24:55.051Z,60.34
2018-09-02T20:27:58.867Z,59.03
2018-09-02T20:31:02.401Z,58.54
2018-09-02T20:34:07.110Z,60.01
2018-09-02T20:37:12.497Z,59.92
2018-09-02T20:40:16.187Z,60.97
2018-09-02T20:43:20.699Z,59.16
2018-09-02T20:46:25.200Z,61.07
2018-09-02T20:49:29.205Z,58.30
2018-09-02T20:52:35.354Z,59.44
2018-09-02T20:56:42.292Z,60.11
2018-09-02T20:59:45.534Z,60.53
2018-09-02T21:02:48.729Z,61.11
2018-09-02T21:05:51.898Z,59.81
2018-09-02T21:08:55.027Z,61.45
2018-09-02T21:11:58.678Z,60.96
2018-09-02T21:15:03.780Z,61.82
2018-09-02T21:18:08.416Z,62.72
2018-09-02T21:21:11.506Z,63.41
2018-09-02T21:24:14.814Z,64.82
2018-09-02T21:27:17.992Z,63.70
2018-09-02T21:30:22.977Z,64.20
2018-09-02T21:33:26.136Z,64.04
2018-09-02T21:36:30.152Z,65.56
2018-09-02T21:39:37.463Z,64.27
2018-09-02T21:42:46.968Z,65.01
2018-09-02T21:45:50.147Z,65.77
2018-09-02T21:48:53.480Z,65.84
2018-09-02T21:51:56.573Z,66.09
2018-09-02T21:54:59.687Z,65.24
2018-09-02T21:58:03.437Z,66.41
2018-09-02T22:01:06.626Z,66.34
2018-09-02T22:04:09.768Z,65.02
2018-09-02T22:07:12.925Z,63.70
2018-09-02T22:10:15.998Z,65.63
2018-09-02T22:13:19.168Z,65.47
2018-09-02T22:16:22.482Z,65.16
2018-09-02T22:19:25.543Z,66.92
2018-09-02T22:22:28.928Z,67.22
2018-09-02T22:25:32.046Z,67.35
2018-09-02T22:28:35.248Z,66.69
2018-09-02T22:31:38.430Z,67.60
2018-09-02T22:34:41.576Z,67.76
2018-09-02T22:37:44.653Z,66.09
2018-09-02T22:40:47.819Z,66.17
2018-09-02T22:43:51.248Z,68.50
2018-09-02T22:46:54.364Z,67.57
2018-09-02T22:49:57.703Z,68.88
2018-09-02T22:53:00.863Z,68.36
2018-09-02T22:56:03.905Z,68.62
2018-09-02T22:59:07.074Z,68.40
2018-09-02T23:02:10.268Z,68.97
2018-09-02T23:05:13.373Z,70.47
2018-09-02T23:08:16.477Z,68.81
2018-09-02T23:11:19.649Z,68.31
2018-09-02T23:14:22.781Z,69.52
2018-09-02T23:17:25.848Z,69.33
2018-09-02T23:20:28.846Z,71.16
2018-09-02T23:23:31.984Z,69.44
2018-09-02T23:26:35.155Z,71.04
2018-09-02T23:29:38.269Z,71.24
2018-09-02T23:32:48.179Z,70.90
2018-09-02T23:35:51.503Z,71.26
2018-09-02T23:38:54.520Z,71.03
2018-09-02T23:41:57.593Z,71.46
2018-09-02T23:45:00.703Z,71.09
2018-09-02T23:48:03.880Z,72.65
2018-09-02T23:51:07.191Z,72.27
2018-09-02T23:54:10.329Z,71.62
2018-09-02T23:57:13.408Z,72.86
